createdAt,value
2022-11-25T00:01:23.300Z,3.90
2022-11-25T00:10:25.892Z,5.13
2022-11-25T00:16:06.462Z,4.30
2022-11-25T00:21:36.732Z,4.40
2022-11-25T00:24:11.002Z,3.70
2022-11-25T00:29:42.832Z,2.40
2022-11-25T00:32:18.620Z,1.63
2022-11-25T00:34:57.965Z,1.90
2022-11-25T00:38:05.259Z,2.50
2022-11-25T00:44:27.889Z,3.67
2022-11-25T00:47:43.838Z,3.10
2022-11-25T00:53:22.226Z,2.97
2022-11-25T00:56:10.801Z,2.17
2022-11-25T01:02:01.889Z,3.40
2022-11-25T01:04:57.386Z,2.73
2022-11-25T01:07:46.370Z,2.53
2022-11-25T01:10:19.127Z,3.90
2022-11-25T01:16:39.881Z,3.77
2022-11-25T01:19:22.243Z,3.40
2022-11-25T01:21:53.309Z,4.30
2022-11-25T01:24:26.650Z,3.00
2022-11-25T01:26:59.998Z,2.63
2022-11-25T01:29:59.210Z,2.80
2022-11-25T01:33:00.445Z,2.83
2022-11-25T01:35:39.990Z,2.70
2022-11-25T01:38:36.495Z,3.90
2022-11-25T01:41:15.110Z,2.07
2022-11-25T01:43:55.506Z,2.83
2022-11-25T01:47:08.729Z,3.10
2022-11-25T01:50:02.653Z,2.90
2022-11-25T01:53:08.354Z,2.77
2022-11-25T01:55:43.476Z,2.00
2022-11-25T01:58:17.297Z,4.37
2022-11-25T02:00:53.725Z,3.50
2022-11-25T02:04:17.968Z,3.53
2022-11-25T02:09:52.017Z,2.83
2022-11-25T02:12:23.264Z,3.33
2022-11-25T02:14:58.114Z,3.50
2022-11-25T02:17:56.275Z,2.10
2022-11-25T02:20:29.725Z,2.30
2022-11-25T02:23:08.796Z,2.73
2022-11-25T02:25:52.638Z,2.87
2022-11-25T02:28:27.656Z,2.17
2022-11-25T02:31:02.031Z,2.70
2022-11-25T02:33:35.769Z,2.83
2022-11-25T02:36:06.921Z,3.17
2022-11-25T02:38:40.774Z,3.40
2022-11-25T02:42:04.561Z,1.83
2022-11-25T02:47:37.118Z,1.70
2022-11-25T02:50:24.281Z,1.83
2022-11-25T03:35:18.803Z,3.43
2022-11-25T03:49:16.943Z,3.47
2022-11-25T03:54:58.052Z,2.63
2022-11-25T03:57:35.055Z,2.90
2022-11-25T04:00:11.576Z,3.37
2022-11-25T04:03:05.569Z,3.10
2022-11-25T04:05:44.493Z,2.27
2022-11-25T04:08:30.711Z,1.67
2022-11-25T04:11:19.343Z,1.67
2022-11-25T04:13:48.246Z,1.50
2022-11-25T04:40:42.876Z,3.47
2022-11-25T04:43:41.262Z,2.17
2022-11-25T04:46:20.676Z,3.43
2022-11-25T04:49:05.970Z,2.90
2022-11-25T05:06:35.676Z,1.53
2022-11-25T05:09:15.398Z,3.10
2022-11-25T05:11:58.252Z,2.27
2022-11-25T05:14:44.850Z,3.17
2022-11-25T05:17:26.989Z,4.03
2022-11-25T05:25:30.182Z,4.50
2022-11-25T05:30:40.480Z,4.03
2022-11-25T05:36:09.867Z,1.77
2022-11-25T05:44:59.276Z,5.20
2022-11-25T05:47:35.864Z,4.37
2022-11-25T05:50:05.579Z,3.13
2022-11-25T05:52:57.624Z,2.17
2022-11-25T05:55:25.981Z,1.60
2022-11-25T05:57:58.556Z,1.67
2022-11-25T06:00:28.822Z,1.27
2022-11-25T06:03:26.108Z,2.03
2022-11-25T06:05:57.178Z,2.27
2022-11-25T06:08:27.695Z,2.00
2022-11-25T06:11:03.754Z,1.87
2022-11-25T06:13:52.846Z,2.60
2022-11-25T06:16:24.516Z,2.47
2022-11-25T06:19:07.921Z,3.50
2022-11-25T06:21:36.530Z,3.10
2022-11-25T06:24:07.649Z,3.57
2022-11-25T06:26:38.672Z,4.57
2022-11-25T06:29:17.385Z,3.77
2022-11-25T06:31:46.693Z,3.63
2022-11-25T06:34:18.245Z,3.97
2022-11-25T06:36:47.678Z,3.70
2022-11-25T06:39:17.485Z,3.47
2022-11-25T06:41:47.369Z,4.07
2022-11-25T06:44:15.973Z,3.90
2022-11-25T06:46:53.486Z,3.23
2022-11-25T06:49:22.235Z,2.60
2022-11-25T06:51:58.685Z,2.97
2022-11-25T06:54:31.615Z,2.60
2022-11-25T06:57:02.820Z,3.00
2022-11-25T06:59:30.941Z,2.07
2022-11-25T07:04:42.498Z,2.83
2022-11-25T07:07:36.388Z,2.63
2022-11-25T07:13:37.054Z,3.00
2022-11-25T07:16:14.474Z,2.80
2022-11-25T07:18:53.580Z,3.70
2022-11-25T07:21:32.162Z,3.40
2022-11-25T07:24:05.403Z,4.93
2022-11-25T07:32:25.786Z,3.00
2022-11-25T07:35:14.461Z,2.23
2022-11-25T08:13:02.644Z,4.10
2022-11-25T08:15:42.540Z,3.30
2022-11-25T08:23:55.830Z,4.00
2022-11-25T08:42:14.793Z,3.63
2022-11-25T08:56:47.022Z,3.23
2022-11-25T09:03:04.780Z,3.10
2022-11-25T09:30:27.979Z,2.27
2022-11-25T09:39:32.811Z,3.73
2022-11-25T09:51:15.964Z,3.33
2022-11-25T09:54:43.521Z,3.87
2022-11-25T10:06:37.952Z,3.77
2022-11-25T10:15:18.168Z,4.80
2022-11-25T10:20:44.169Z,4.33
2022-11-25T10:26:00.465Z,4.80
2022-11-25T10:28:38.631Z,3.10
2022-11-25T10:31:20.323Z,3.40
2022-11-25T10:34:07.229Z,3.73
2022-11-25T10:37:28.563Z,4.57
2022-11-25T10:40:05.993Z,3.70
2022-11-25T10:42:58.123Z,3.77
2022-11-25T10:45:33.786Z,4.63
2022-11-25T10:48:18.694Z,3.20
2022-11-25T10:51:03.614Z,3.60
2022-11-25T10:53:40.343Z,2.73
2022-11-25T10:56:17.527Z,3.00
2022-11-25T11:01:33.431Z,3.50
2022-11-25T11:04:15.371Z,3.40
2022-11-25T11:06:47.183Z,3.93
2022-11-25T11:09:47.402Z,4.13
2022-11-25T11:12:25.636Z,3.70
2022-11-25T11:15:20.790Z,3.80
2022-11-25T11:17:49.679Z,3.50
2022-11-25T11:20:25.995Z,4.73
2022-11-25T11:23:09.428Z,4.20
2022-11-25T11:25:41.915Z,3.87
2022-11-25T11:28:38.204Z,3.60
2022-11-25T11:31:10.957Z,3.97
2022-11-25T11:33:49.701Z,3.17
2022-11-25T11:36:33.405Z,2.10
2022-11-25T11:39:26.192Z,3.77
2022-11-25T11:42:15.993Z,2.87
2022-11-25T11:45:08.161Z,3.73
2022-11-25T11:50:35.451Z,3.53
2022-11-25T11:53:31.588Z,2.60
2022-11-25T11:59:24.763Z,2.93
2022-11-25T12:02:12.188Z,3.30
2022-11-25T12:04:45.199Z,4.50
2022-11-25T12:07:20.292Z,3.17
2022-11-25T12:10:00.112Z,3.60
2022-11-25T12:12:35.374Z,3.50
2022-11-25T12:15:14.361Z,3.37
2022-11-25T12:17:54.284Z,3.27
2022-11-25T12:20:34.252Z,3.17
2022-11-25T12:23:08.872Z,3.07
2022-11-25T12:25:40.851Z,3.33
2022-11-25T12:28:14.872Z,2.97
2022-11-25T12:31:01.871Z,3.63
2022-11-25T12:33:44.148Z,3.87
2022-11-25T12:36:18.073Z,3.30
2022-11-25T12:38:50.244Z,2.97
2022-11-25T12:41:38.700Z,2.93
2022-11-25T12:44:17.265Z,3.37
2022-11-25T12:46:49.357Z,2.43
2022-11-25T12:49:22.137Z,3.67
2022-11-25T12:52:14.489Z,2.73
2022-11-25T12:55:23.349Z,3.37
2022-11-25T12:58:32.018Z,3.67
2022-11-25T13:01:31.728Z,2.47
2022-11-25T13:04:51.980Z,2.30
2022-11-25T13:07:33.275Z,3.90
2022-11-25T13:10:33.020Z,5.00
2022-11-25T13:13:21.138Z,4.20
2022-11-25T13:15:53.663Z,3.30
2022-11-25T13:18:25.662Z,2.33
2022-11-25T13:20:58.912Z,3.30
2022-11-25T13:23:49.039Z,2.50
2022-11-25T13:26:39.551Z,4.30
2022-11-25T13:29:32.629Z,3.37
2022-11-25T13:32:06.531Z,2.17
2022-11-25T13:34:36.589Z,3.83
2022-11-25T13:37:37.025Z,1.90
2022-11-25T13:40:22.948Z,1.70
2022-11-25T13:42:53.504Z,3.50
2022-11-25T13:45:32.212Z,2.47
2022-11-25T13:48:08.317Z,2.33
2022-11-25T13:51:03.354Z,2.40
2022-11-25T13:53:34.167Z,3.03
2022-11-25T13:56:16.424Z,2.43
2022-11-25T13:59:18.343Z,2.73
2022-11-25T14:02:14.921Z,2.97
2022-11-25T14:05:00.081Z,2.20
2022-11-25T14:07:40.929Z,2.67
2022-11-25T14:10:28.348Z,1.63
2022-11-25T14:13:07.480Z,2.37
2022-11-25T14:15:51.389Z,2.13
2022-11-25T14:21:53.334Z,2.00
2022-11-25T14:24:31.132Z,2.60
2022-11-25T14:27:01.873Z,2.30
2022-11-25T14:29:40.063Z,3.17
2022-11-25T14:32:16.328Z,2.23
2022-11-25T14:34:49.148Z,2.70
2022-11-25T14:37:26.573Z,3.13
2022-11-25T14:40:05.217Z,4.13
2022-11-25T14:42:40.624Z,2.80
2022-11-25T14:45:34.017Z,1.23
2022-11-25T14:48:15.384Z,1.93
2022-11-25T14:50:56.958Z,2.87
2022-11-25T14:53:30.944Z,1.80
2022-11-25T14:56:00.925Z,2.50
2022-11-25T14:58:31.452Z,2.40
2022-11-25T15:01:04.586Z,2.77
2022-11-25T15:03:33.430Z,3.40
2022-11-25T15:06:04.907Z,2.87
2022-11-25T15:08:42.049Z,3.37
2022-11-25T15:11:16.126Z,3.47
2022-11-25T15:13:48.364Z,3.50
2022-11-25T15:16:22.143Z,4.03
2022-11-25T15:18:53.132Z,4.03
2022-11-25T15:21:25.637Z,4.10
2022-11-25T15:23:54.449Z,4.10
2022-11-25T15:26:24.884Z,4.60
2022-11-25T15:28:59.165Z,3.93
2022-11-25T15:31:30.305Z,4.90
2022-11-25T15:34:01.238Z,4.23
2022-11-25T15:36:29.845Z,3.47
2022-11-25T15:39:15.311Z,3.27
2022-11-25T15:41:46.804Z,3.00
2022-11-25T15:44:25.109Z,3.70
2022-11-25T15:46:59.358Z,4.70
2022-11-25T15:49:28.247Z,3.90
2022-11-25T15:52:00.913Z,3.53
2022-11-25T15:54:32.951Z,3.07
2022-11-25T15:57:05.203Z,3.43
2022-11-25T15:59:52.705Z,3.00
2022-11-25T16:02:50.345Z,4.07
2022-11-25T16:05:37.543Z,4.40
2022-11-25T16:08:30.425Z,3.40
2022-11-25T16:11:00.902Z,4.93
2022-11-25T16:13:31.875Z,5.33
2022-11-25T16:16:19.236Z,7.13
2022-11-25T16:19:06.990Z,7.77
2022-11-25T16:22:02.275Z,7.20
2022-11-25T16:24:38.445Z,6.40
2022-11-25T16:27:15.920Z,3.83
2022-11-25T16:29:57.490Z,4.30
2022-11-25T16:32:29.073Z,4.13
2022-11-25T16:34:58.983Z,4.33
2022-11-25T16:37:30.585Z,3.70
2022-11-25T16:39:59.043Z,3.60
2022-11-25T16:42:28.466Z,2.93
2022-11-25T16:44:57.847Z,4.40
2022-11-25T16:47:28.742Z,3.97
2022-11-25T16:49:58.111Z,4.23
2022-11-25T16:52:26.831Z,3.70
2022-11-25T16:54:56.633Z,3.27
2022-11-25T16:57:25.721Z,3.20
2022-11-25T17:00:01.225Z,3.50
2022-11-25T17:02:42.769Z,4.77
2022-11-25T17:05:21.837Z,4.60
2022-11-25T17:07:54.300Z,3.53
2022-11-25T17:10:33.372Z,4.87
2022-11-25T17:13:06.373Z,4.83
2022-11-25T17:15:53.256Z,3.90
2022-11-25T17:18:27.826Z,5.23
2022-11-25T17:21:06.736Z,6.23
2022-11-25T17:23:36.292Z,7.67
2022-11-25T17:26:15.596Z,11.27
2022-11-25T17:28:44.460Z,46.93
2022-11-25T17:31:19.211Z,24.67
2022-11-25T17:33:55.627Z,14.30
2022-11-25T17:36:34.081Z,10.13
2022-11-25T17:39:12.239Z,8.77
2022-11-25T17:41:47.370Z,5.70
2022-11-25T17:44:29.634Z,5.83
2022-11-25T17:49:58.587Z,5.77
2022-11-25T17:52:39.767Z,3.87
2022-11-25T17:55:09.314Z,4.00
2022-11-25T17:58:01.233Z,3.07
2022-11-25T18:00:44.251Z,2.40
2022-11-25T18:03:31.318Z,3.50
2022-11-25T18:06:03.802Z,3.40
2022-11-25T18:08:34.580Z,3.00
2022-11-25T18:11:07.131Z,2.80
2022-11-25T18:13:41.756Z,2.80
2022-11-25T18:16:11.268Z,3.30
2022-11-25T18:18:41.552Z,3.20
2022-11-25T18:21:14.126Z,3.80
2022-11-25T18:23:43.947Z,4.53
2022-11-25T18:26:13.342Z,6.00
2022-11-25T18:28:42.333Z,9.93
2022-11-25T18:31:15.326Z,8.67
2022-11-25T18:33:45.279Z,11.27
2022-11-25T18:36:21.965Z,9.07
2022-11-25T18:38:55.040Z,5.43
2022-11-25T18:41:24.644Z,14.97
2022-11-25T18:43:54.253Z,11.40
2022-11-25T18:46:24.417Z,9.87
2022-11-25T18:48:54.797Z,6.40
2022-11-25T18:51:27.683Z,4.90
2022-11-25T18:54:00.280Z,4.10
2022-11-25T18:56:30.959Z,4.50
2022-11-25T18:59:01.075Z,5.00
2022-11-25T19:01:30.630Z,5.60
2022-11-25T19:04:00.913Z,9.50
2022-11-25T19:06:45.876Z,14.00
2022-11-25T19:09:18.373Z,8.57
2022-11-25T19:12:05.615Z,8.50
2022-11-25T19:14:40.034Z,8.20
2022-11-25T19:17:28.067Z,6.20
2022-11-25T19:20:04.441Z,6.10
2022-11-25T19:22:55.565Z,5.33
2022-11-25T19:25:27.816Z,7.40
2022-11-25T19:28:02.597Z,7.00
2022-11-25T19:30:37.424Z,5.47
2022-11-25T19:33:12.190Z,6.77
2022-11-25T19:35:41.709Z,8.10
2022-11-25T19:38:22.077Z,12.80
2022-11-25T19:40:55.771Z,18.37
2022-11-25T19:43:27.512Z,34.67
2022-11-25T19:45:57.979Z,45.27
2022-11-25T19:48:32.180Z,14.93
2022-11-25T19:53:51.230Z,9.27
2022-11-25T19:56:22.820Z,9.50
2022-11-25T19:58:52.832Z,5.80
2022-11-25T20:01:23.486Z,6.53
2022-11-25T20:06:57.295Z,5.40
2022-11-25T20:09:26.253Z,5.77
2022-11-25T20:11:59.691Z,6.20
2022-11-25T20:14:36.409Z,6.13
2022-11-25T20:17:13.082Z,6.53
2022-11-25T20:19:41.603Z,5.10
2022-11-25T20:22:18.016Z,5.43
2022-11-25T20:24:49.675Z,6.50
2022-11-25T20:27:18.751Z,5.67
2022-11-25T20:29:48.351Z,5.90
2022-11-25T20:32:24.999Z,5.73
2022-11-25T20:34:54.462Z,5.33
2022-11-25T20:37:25.084Z,5.73
2022-11-25T20:39:55.539Z,5.57
2022-11-25T20:42:26.117Z,6.37
2022-11-25T20:44:57.700Z,5.90
2022-11-25T20:47:29.482Z,5.80
2022-11-25T20:49:57.970Z,6.33
2022-11-25T20:52:32.415Z,5.37
2022-11-25T20:55:01.808Z,5.00
2022-11-25T20:57:30.312Z,6.27
2022-11-25T20:59:58.879Z,5.70
2022-11-25T21:02:28.118Z,6.33
2022-11-25T21:04:56.938Z,6.47
2022-11-25T21:07:26.600Z,6.17
2022-11-25T21:09:56.506Z,5.60
2022-11-25T21:12:24.658Z,6.67
2022-11-25T21:14:52.974Z,7.07
2022-11-25T21:17:21.140Z,6.80
2022-11-25T21:19:49.499Z,5.67
2022-11-25T21:22:18.232Z,6.47
2022-11-25T21:24:46.879Z,5.60
2022-11-25T21:27:26.156Z,7.03
2022-11-25T21:29:55.009Z,6.33
2022-11-25T21:32:25.568Z,5.90
2022-11-25T21:34:54.185Z,5.50
2022-11-25T21:37:33.505Z,5.27
2022-11-25T21:40:02.457Z,6.47
2022-11-25T21:42:33.768Z,4.63
2022-11-25T21:45:03.286Z,4.47
2022-11-25T21:47:32.920Z,5.03
2022-11-25T21:50:01.920Z,4.43
2022-11-25T21:52:30.995Z,4.57
2022-11-25T21:55:01.041Z,5.63
2022-11-25T21:57:35.667Z,5.40
2022-11-25T22:00:07.437Z,5.10
2022-11-25T22:02:54.712Z,5.37
2022-11-25T22:05:29.228Z,4.70
2022-11-25T22:07:57.934Z,4.47
2022-11-25T22:10:27.756Z,4.60
2022-11-25T22:12:59.791Z,4.70
2022-11-25T22:15:28.182Z,5.03
2022-11-25T22:17:59.871Z,5.30
2022-11-25T22:20:34.085Z,4.63
2022-11-25T22:23:03.887Z,4.40
2022-11-25T22:25:35.411Z,5.23
2022-11-25T22:28:09.044Z,5.00
2022-11-25T22:30:40.726Z,5.47
2022-11-25T22:33:12.254Z,4.57
2022-11-25T22:35:40.870Z,5.90
2022-11-25T22:38:15.782Z,4.50
2022-11-25T22:40:51.209Z,5.60
2022-11-25T22:43:29.218Z,5.13
2022-11-25T22:45:59.234Z,4.53
2022-11-25T22:48:34.143Z,4.97
2022-11-25T22:51:13.776Z,5.07
2022-11-25T22:53:50.415Z,5.10
2022-11-25T22:56:22.566Z,5.00
2022-11-25T22:58:54.194Z,4.77
2022-11-25T23:01:22.742Z,4.80
2022-11-25T23:03:52.588Z,4.97
2022-11-25T23:06:22.732Z,4.50
2022-11-25T23:08:55.073Z,4.43
2022-11-25T23:11:24.514Z,5.07
2022-11-25T23:13:55.807Z,4.27
2022-11-25T23:16:25.467Z,4.80
2022-11-25T23:18:54.625Z,4.73
2022-11-25T23:21:25.957Z,4.63
2022-11-25T23:23:55.059Z,4.13
2022-11-25T23:26:24.549Z,4.23
2022-11-25T23:28:57.979Z,4.03
2022-11-25T23:31:26.930Z,4.73
2022-11-25T23:33:55.514Z,3.80
2022-11-25T23:36:26.419Z,3.70
2022-11-25T23:38:58.716Z,3.60
2022-11-25T23:41:29.646Z,4.00
2022-11-25T23:44:11.850Z,3.67
2022-11-25T23:46:42.253Z,3.43
2022-11-25T23:49:21.977Z,4.00
2022-11-25T23:51:51.240Z,4.00
2022-11-25T23:54:22.493Z,3.27
2022-11-25T23:56:50.916Z,4.50
2022-11-25T23:59:24.988Z,4.03
